Time;durP1;ratioP1;P1;durP2;ratioP2;P2;SDS_P1;SDS_P2;PMS_P1;PMS_P2;Temp;Humidity;BMP_temperature;BMP_pressure;BME280_temperature;BME280_humidity;BME280_pressure;Samples;Min_cycle;Max_cycle;Signal;HPM_P1;HPM_P2
2020/12/15 00:01:28;;;;;;;2.07;1.90;;;7.60;99.90;;;;;;5021549;28;20540;-49
2020/12/15 00:03:54;;;;;;;2.70;2.20;;;7.60;99.90;;;;;;5020024;28;20483;-39
2020/12/15 00:06:19;;;;;;;2.33;2.17;;;7.60;99.90;;;;;;5022879;28;20190;-42
2020/12/15 00:08:45;;;;;;;2.43;2.03;;;7.60;99.90;;;;;;4985788;28;20725;-47
2020/12/15 00:11:17;;;;;;;2.03;1.83;;;7.50;99.90;;;;;;5003884;28;20253;-41
2020/12/15 00:13:44;;;;;;;2.57;2.00;;;7.60;99.90;;;;;;4996219;28;20194;-50
2020/12/15 00:16:11;;;;;;;2.43;2.23;;;7.50;99.90;;;;;;5003866;28;20180;-39
2020/12/15 00:18:36;;;;;;;3.30;2.03;;;7.50;99.90;;;;;;5001097;28;20191;-50
2020/12/15 00:21:02;;;;;;;2.57;1.87;;;7.50;99.90;;;;;;5002362;28;20173;-42
2020/12/15 00:23:27;;;;;;;2.27;1.80;;;7.50;99.90;;;;;;5000525;28;20213;-42
2020/12/15 00:25:53;;;;;;;3.30;2.37;;;7.50;99.90;;;;;;4990096;28;20201;-42
2020/12/15 00:28:18;;;;;;;2.50;2.30;;;7.50;99.90;;;;;;5010018;28;20858;-42
2020/12/15 00:30:44;;;;;;;2.20;1.93;;;7.50;99.90;;;;;;5022275;28;20244;-44
2020/12/15 00:33:09;;;;;;;2.87;1.83;;;7.50;99.90;;;;;;5026296;28;20282;-42
2020/12/15 00:35:35;;;;;;;2.20;2.00;;;7.50;99.90;;;;;;5024013;28;20194;-45
2020/12/15 00:38:00;;;;;;;4.80;2.00;;;7.50;99.90;;;;;;5024659;28;20889;-43
2020/12/15 00:40:26;;;;;;;2.20;2.00;;;7.50;99.90;;;;;;4995296;28;20189;-42
2020/12/15 00:42:51;;;;;;;2.93;2.20;;;7.50;99.90;;;;;;5000863;28;20199;-41
2020/12/15 00:45:16;;;;;;;2.67;1.93;;;7.40;99.90;;;;;;5004730;28;20176;-41
2020/12/15 00:47:42;;;;;;;2.27;2.00;;;7.40;99.90;;;;;;5022567;28;20196;-42
2020/12/15 00:50:08;;;;;;;2.60;1.97;;;7.40;99.90;;;;;;5026081;28;20191;-45
2020/12/15 00:52:33;;;;;;;3.13;2.57;;;7.40;99.90;;;;;;5023990;28;20202;-45
2020/12/15 00:54:59;;;;;;;2.90;1.90;;;7.40;99.90;;;;;;5002728;28;21063;-41
2020/12/15 00:57:24;;;;;;;4.83;2.23;;;7.30;99.90;;;;;;5011849;28;20564;-47
2020/12/15 00:59:53;;;;;;;2.80;2.03;;;7.30;99.90;;;;;;5022078;28;20172;-42
2020/12/15 01:02:19;;;;;;;2.93;2.47;;;7.30;99.90;;;;;;5025728;28;20644;-41
2020/12/15 01:04:44;;;;;;;3.87;2.30;;;7.30;99.90;;;;;;5021520;28;20196;-41
2020/12/15 01:07:09;;;;;;;2.60;2.40;;;7.20;99.90;;;;;;5026015;28;20189;-43
2020/12/15 01:09:35;;;;;;;2.53;2.30;;;7.20;99.90;;;;;;5022298;28;20192;-42
2020/12/15 01:12:04;;;;;;;2.47;2.27;;;7.20;99.90;;;;;;4992286;28;20270;-42
2020/12/15 01:14:30;;;;;;;2.43;2.07;;;7.20;99.90;;;;;;5001054;28;20194;-43
2020/12/15 01:16:55;;;;;;;2.87;2.40;;;7.10;99.90;;;;;;5023047;28;20204;-43
2020/12/15 01:19:21;;;;;;;2.60;2.40;;;7.10;99.90;;;;;;5025800;28;20267;-43
2020/12/15 01:21:46;;;;;;;3.10;2.20;;;7.10;99.90;;;;;;5021148;28;20168;-41
2020/12/15 01:24:12;;;;;;;2.90;2.60;;;7.00;99.90;;;;;;5025557;28;20317;-42
2020/12/15 01:26:37;;;;;;;6.47;2.50;;;7.00;99.90;;;;;;4997061;28;20201;-44
2020/12/15 01:29:02;;;;;;;3.40;2.50;;;7.00;99.90;;;;;;5011110;28;20204;-41
2020/12/15 01:31:29;;;;;;;2.40;2.20;;;6.90;99.90;;;;;;5024097;28;20568;-43
2020/12/15 01:33:54;;;;;;;2.90;2.60;;;6.90;99.90;;;;;;5022810;28;20286;-43
2020/12/15 01:36:30;;;;;;;3.53;2.77;;;6.90;99.90;;;;;;5025258;28;20207;-44
2020/12/15 01:38:57;;;;;;;3.57;2.57;;;6.80;99.90;;;;;;5022877;28;20163;-41
2020/12/15 01:41:22;;;;;;;3.90;2.60;;;6.80;99.90;;;;;;5022215;28;20176;-44
2020/12/15 01:43:59;;;;;;;3.23;2.93;;;6.80;99.90;;;;;;4985804;28;20232;-41
2020/12/15 01:46:26;;;;;;;5.93;3.03;;;6.80;99.90;;;;;;5005945;28;20181;-44
2020/12/15 01:48:53;;;;;;;4.20;2.77;;;6.80;99.90;;;;;;5002936;28;20239;-43
2020/12/15 01:51:19;;;;;;;3.10;2.80;;;6.80;99.90;;;;;;5006015;28;20193;-41
2020/12/15 01:53:47;;;;;;;3.43;2.87;;;6.70;99.90;;;;;;5001966;28;20196;-42
2020/12/15 01:56:14;;;;;;;3.20;2.63;;;6.70;99.90;;;;;;5006111;28;20181;-43
2020/12/15 01:58:40;;;;;;;3.10;2.90;;;6.70;99.90;;;;;;4981699;28;20578;-42
2020/12/15 02:01:07;;;;;;;3.37;2.67;;;6.70;99.90;;;;;;5005666;28;20199;-41
2020/12/15 02:03:33;;;;;;;4.23;2.80;;;6.70;99.90;;;;;;5003932;28;20266;-46
2020/12/15 02:05:58;;;;;;;4.73;2.50;;;6.70;99.90;;;;;;5003992;28;20910;-42
2020/12/15 02:08:24;;;;;;;4.33;2.60;;;6.70;99.90;;;;;;5005454;28;20189;-44
2020/12/15 02:10:50;;;;;;;3.53;3.23;;;6.70;99.90;;;;;;5001793;28;20247;-41
2020/12/15 02:13:15;;;;;;;3.90;3.10;;;6.70;99.90;;;;;;4987323;28;20212;-41
2020/12/15 02:15:41;;;;;;;3.93;3.03;;;6.70;99.90;;;;;;5002753;28;20196;-41
2020/12/15 02:18:07;;;;;;;3.40;2.90;;;6.70;99.90;;;;;;5024279;28;20679;-41
2020/12/15 02:20:33;;;;;;;3.53;3.03;;;6.70;99.90;;;;;;5022885;28;20259;-42
2020/12/15 02:22:58;;;;;;;2.83;2.60;;;6.70;99.90;;;;;;5022315;28;20242;-42
2020/12/15 02:25:24;;;;;;;3.03;2.77;;;6.70;99.90;;;;;;5024233;28;20537;-45
2020/12/15 02:27:49;;;;;;;2.93;2.73;;;6.70;99.90;;;;;;5020568;28;20172;-41
2020/12/15 02:30:15;;;;;;;3.27;2.97;;;6.70;99.90;;;;;;4987636;28;20249;-41
2020/12/15 02:32:41;;;;;;;3.60;3.10;;;6.70;99.90;;;;;;5011563;28;20196;-42
2020/12/15 02:35:07;;;;;;;2.90;2.70;;;6.70;99.90;;;;;;5023871;28;20216;-43
2020/12/15 02:37:32;;;;;;;3.47;3.17;;;6.70;99.90;;;;;;5022128;28;20211;-43
2020/12/15 02:39:59;;;;;;;3.10;2.90;;;6.70;99.90;;;;;;5021905;28;20180;-40
2020/12/15 02:42:28;;;;;;;4.27;3.00;;;6.70;99.90;;;;;;5014010;28;20260;-42
2020/12/15 02:44:54;;;;;;;3.40;3.00;;;6.70;99.90;;;;;;4990322;28;20214;-41
2020/12/15 02:47:19;;;;;;;3.67;3.00;;;6.70;99.90;;;;;;5003830;28;20184;-43
2020/12/15 02:49:44;;;;;;;6.73;3.40;;;6.70;99.90;;;;;;5019938;28;20849;-44
2020/12/15 02:52:10;;;;;;;3.60;3.00;;;6.70;99.90;;;;;;5023209;28;20204;-42
2020/12/15 02:54:36;;;;;;;5.13;3.57;;;6.70;99.90;;;;;;5021169;28;20738;-42
2020/12/15 02:57:01;;;;;;;3.93;2.73;;;6.70;99.90;;;;;;5022395;28;20204;-42
2020/12/15 02:59:26;;;;;;;4.13;3.17;;;6.70;99.90;;;;;;5002343;28;20183;-44
2020/12/15 03:01:52;;;;;;;4.37;3.23;;;6.70;99.90;;;;;;4999593;28;20187;-41
2020/12/15 03:04:18;;;;;;;3.23;2.93;;;6.70;99.90;;;;;;5023836;28;20211;-46
2020/12/15 03:06:44;;;;;;;3.17;2.97;;;6.70;99.90;;;;;;5019734;28;20289;-43
2020/12/15 03:09:09;;;;;;;5.47;3.27;;;6.70;99.90;;;;;;5023486;28;20195;-41
2020/12/15 03:11:35;;;;;;;2.80;2.60;;;6.70;99.90;;;;;;5018329;28;20601;-43
2020/12/15 03:14:02;;;;;;;3.50;3.17;;;6.70;99.90;;;;;;5003602;28;20209;-43
2020/12/15 03:16:27;;;;;;;5.77;3.47;;;6.70;99.90;;;;;;4987853;28;20198;-43
2020/12/15 03:18:53;;;;;;;3.60;3.30;;;6.70;99.90;;;;;;5016249;28;20314;-41
2020/12/15 03:21:20;;;;;;;4.27;3.67;;;6.70;99.90;;;;;;5023091;28;20187;-41
2020/12/15 03:23:46;;;;;;;3.97;3.47;;;6.70;99.90;;;;;;5019340;28;20207;-44
2020/12/15 03:26:11;;;;;;;4.40;2.90;;;6.70;99.90;;;;;;5023253;28;20176;-42
2020/12/15 03:28:37;;;;;;;3.50;3.20;;;6.70;99.90;;;;;;5020327;28;20207;-42
2020/12/15 03:31:02;;;;;;;3.73;3.43;;;6.70;99.90;;;;;;5000097;28;20193;-41
2020/12/15 03:33:28;;;;;;;3.83;3.47;;;6.70;99.90;;;;;;4997898;28;20652;-44
2020/12/15 03:35:53;;;;;;;3.80;3.47;;;6.80;99.90;;;;;;5003609;28;20871;-40
2020/12/15 03:38:19;;;;;;;5.80;3.30;;;6.80;99.90;;;;;;5004250;28;20213;-43
2020/12/15 03:40:44;;;;;;;3.50;3.30;;;6.80;99.90;;;;;;5000124;28;20230;-44
2020/12/15 03:43:10;;;;;;;4.10;3.40;;;6.80;99.90;;;;;;5003369;28;20200;-42
2020/12/15 03:45:35;;;;;;;3.50;3.20;;;6.70;99.90;;;;;;5001700;28;20196;-41
2020/12/15 03:48:01;;;;;;;3.23;3.00;;;6.70;99.90;;;;;;4987025;28;20254;-40
2020/12/15 03:50:26;;;;;;;4.97;3.50;;;6.70;99.90;;;;;;5002412;28;20198;-46
2020/12/15 03:52:52;;;;;;;3.63;3.33;;;6.70;99.90;;;;;;5019202;28;20249;-41
2020/12/15 03:55:21;;;;;;;3.73;3.40;;;6.70;99.90;;;;;;5004944;28;20189;-40
2020/12/15 03:57:50;;;;;;;4.10;3.80;;;6.70;99.90;;;;;;4999881;28;20210;-42
2020/12/15 04:00:16;;;;;;;3.90;3.50;;;6.70;99.90;;;;;;5004223;28;20518;-41
2020/12/15 04:02:42;;;;;;;3.70;3.40;;;6.60;99.90;;;;;;4990005;28;20184;-45
2020/12/15 04:05:07;;;;;;;4.00;3.30;;;6.60;99.90;;;;;;4995286;28;20239;-40
2020/12/15 04:07:33;;;;;;;6.40;3.37;;;6.60;99.90;;;;;;5000732;28;20195;-44
2020/12/15 04:09:58;;;;;;;4.10;3.70;;;6.60;99.90;;;;;;5001642;28;20969;-42
2020/12/15 04:12:24;;;;;;;4.20;3.30;;;6.60;99.90;;;;;;5003539;28;20187;-45
2020/12/15 04:14:49;;;;;;;4.00;3.50;;;6.60;99.90;;;;;;4999750;28;20220;-42
2020/12/15 04:17:15;;;;;;;5.27;3.37;;;6.60;99.90;;;;;;5003792;28;20275;-43
2020/12/15 04:19:40;;;;;;;4.00;3.70;;;6.60;99.90;;;;;;4983587;28;20187;-44
2020/12/15 04:22:06;;;;;;;4.83;3.47;;;6.60;99.90;;;;;;5001689;28;20556;-43
2020/12/15 04:24:32;;;;;;;3.53;3.23;;;6.60;99.90;;;;;;5020770;28;20246;-42
2020/12/15 04:26:58;;;;;;;3.93;3.63;;;6.60;99.90;;;;;;5020514;28;20172;-43
2020/12/15 04:29:23;;;;;;;3.57;3.27;;;6.60;99.90;;;;;;5022294;28;20215;-41
2020/12/15 04:31:49;;;;;;;4.40;3.23;;;6.60;99.90;;;;;;5012436;28;20993;-43
2020/12/15 04:34:14;;;;;;;3.60;3.30;;;6.60;99.90;;;;;;4984902;28;20243;-42
2020/12/15 04:36:40;;;;;;;4.10;3.70;;;6.60;99.90;;;;;;4990743;28;20209;-43
2020/12/15 04:39:06;;;;;;;4.13;3.73;;;6.60;99.90;;;;;;5003437;28;20185;-44
2020/12/15 04:41:32;;;;;;;3.33;3.03;;;6.60;99.90;;;;;;5001086;28;20188;-43
2020/12/15 04:43:59;;;;;;;5.70;3.30;;;6.60;99.90;;;;;;5001471;28;20192;-44
2020/12/15 04:46:28;;;;;;;3.97;3.67;;;6.60;99.90;;;;;;5003245;28;20185;-46
2020/12/15 04:49:06;;;;;;;5.07;3.57;;;6.60;99.90;;;;;;4982384;28;21353;-45
2020/12/15 04:51:56;;;;;;;4.67;3.90;;;6.60;99.90;;;;;;5001398;28;20218;-47
2020/12/15 04:54:34;;;;;;;3.50;3.20;;;6.60;99.90;;;;;;5016468;28;20208;-42
2020/12/15 04:57:02;;;;;;;3.97;3.57;;;6.60;99.90;;;;;;5020437;28;20952;-42
2020/12/15 04:59:35;;;;;;;6.20;3.80;;;6.60;99.90;;;;;;5021364;28;20188;-45
2020/12/15 05:02:05;;;;;;;4.20;3.57;;;6.60;99.90;;;;;;5005087;28;20240;-43
2020/12/15 05:04:40;;;;;;;4.30;3.70;;;6.60;99.90;;;;;;4976729;28;20234;-43
2020/12/15 05:07:06;;;;;;;4.17;3.77;;;6.60;99.90;;;;;;5001994;28;20188;-44
2020/12/15 05:09:33;;;;;;;4.13;3.73;;;6.60;99.90;;;;;;5020339;28;20273;-43
2020/12/15 05:11:59;;;;;;;4.53;4.13;;;6.60;99.90;;;;;;5019717;28;20180;-42
2020/12/15 05:14:25;;;;;;;4.07;3.63;;;6.60;99.90;;;;;;5022188;28;20204;-45
2020/12/15 05:16:51;;;;;;;4.00;3.63;;;6.60;99.90;;;;;;5022227;28;20204;-40
2020/12/15 05:19:17;;;;;;;3.83;3.23;;;6.60;99.90;;;;;;5025744;28;20192;-43
2020/12/15 05:21:59;;;;;;;4.30;3.23;;;6.60;99.90;;;;;;4981896;28;20190;-42
2020/12/15 05:24:27;;;;;;;4.70;3.57;;;6.60;99.90;;;;;;5023610;28;20204;-44
2020/12/15 05:26:54;;;;;;;3.77;3.47;;;6.60;99.90;;;;;;5022965;28;20184;-41
2020/12/15 05:29:20;;;;;;;3.93;3.60;;;6.60;99.90;;;;;;5025528;28;20629;-44
2020/12/15 05:31:46;;;;;;;4.00;3.60;;;6.60;99.90;;;;;;5012896;28;20743;-41
2020/12/15 05:34:20;;;;;;;4.77;3.83;;;6.60;99.90;;;;;;5005065;28;20212;-41
2020/12/15 05:36:54;;;;;;;3.67;3.37;;;6.60;99.90;;;;;;4996481;28;20200;-41
2020/12/15 05:39:20;;;;;;;4.27;3.87;;;6.70;99.90;;;;;;5000802;28;20529;-43
2020/12/15 05:41:48;;;;;;;4.63;3.87;;;6.70;99.90;;;;;;5020127;28;20179;-43
2020/12/15 05:44:24;;;;;;;5.40;3.73;;;6.70;99.90;;;;;;5025117;28;20200;-42
2020/12/15 05:46:50;;;;;;;5.20;3.50;;;6.70;99.90;;;;;;5021763;28;20330;-43
2020/12/15 05:49:26;;;;;;;4.80;3.63;;;6.70;99.90;;;;;;5018634;28;20668;-41
2020/12/15 05:51:52;;;;;;;5.63;4.03;;;6.70;99.90;;;;;;4986213;28;20193;-41
2020/12/15 05:54:17;;;;;;;4.77;4.23;;;6.70;99.90;;;;;;5005349;28;20292;-43
2020/12/15 05:56:43;;;;;;;4.50;4.10;;;6.70;99.90;;;;;;5007252;28;20208;-42
2020/12/15 05:59:17;;;;;;;4.10;3.70;;;6.70;99.90;;;;;;5011274;28;20196;-42
2020/12/15 06:01:44;;;;;;;5.23;4.10;;;6.70;99.90;;;;;;5001663;28;20185;-45
2020/12/15 06:04:10;;;;;;;7.30;4.37;;;6.70;99.90;;;;;;5005668;28;20682;-44
2020/12/15 06:06:37;;;;;;;4.70;4.20;;;6.70;99.90;;;;;;4992899;28;20208;-44
2020/12/15 06:09:03;;;;;;;4.93;4.43;;;6.70;99.90;;;;;;5000570;28;20185;-41
2020/12/15 06:11:32;;;;;;;8.63;4.43;;;6.70;99.90;;;;;;5012949;28;20176;-43
2020/12/15 06:13:58;;;;;;;5.27;4.77;;;6.70;99.90;;;;;;5022527;28;20184;-42
2020/12/15 06:16:24;;;;;;;5.43;4.67;;;6.70;99.90;;;;;;5010673;28;20195;-46
2020/12/15 06:18:49;;;;;;;6.43;5.00;;;6.70;99.90;;;;;;5001841;28;20927;-42
2020/12/15 06:21:15;;;;;;;6.20;5.10;;;6.70;99.90;;;;;;5000190;28;20239;-42
2020/12/15 06:23:41;;;;;;;6.40;4.93;;;6.70;99.90;;;;;;4987769;28;20201;-42
2020/12/15 06:26:06;;;;;;;7.13;5.23;;;6.70;99.90;;;;;;5013851;28;20196;-47
2020/12/15 06:28:32;;;;;;;5.27;4.77;;;6.70;99.90;;;;;;5022630;28;20203;-42
2020/12/15 06:30:59;;;;;;;6.60;4.97;;;6.70;99.90;;;;;;4993717;28;20207;-43
2020/12/15 06:33:33;;;;;;;6.57;4.83;;;6.70;99.90;;;;;;5005219;28;20271;-41
2020/12/15 06:36:00;;;;;;;4.77;4.37;;;6.70;99.90;;;;;;4990529;28;20212;-42
2020/12/15 06:38:25;;;;;;;5.53;4.97;;;6.70;99.90;;;;;;4983458;28;20233;-42
2020/12/15 06:40:51;;;;;;;5.27;4.77;;;6.70;99.90;;;;;;5002768;28;20278;-43
2020/12/15 06:43:30;;;;;;;5.33;4.83;;;6.80;99.90;;;;;;5001110;28;20204;-43
2020/12/15 06:46:10;;;;;;;5.83;5.13;;;6.80;99.90;;;;;;5008347;28;20335;-43
2020/12/15 06:48:36;;;;;;;5.53;4.97;;;6.80;99.90;;;;;;5005302;28;20192;-41
2020/12/15 06:51:02;;;;;;;7.63;5.33;;;6.80;99.90;;;;;;5002501;28;20548;-44
2020/12/15 06:53:27;;;;;;;7.57;5.23;;;6.80;99.90;;;;;;4990202;28;20266;-42
2020/12/15 06:56:02;;;;;;;5.97;5.00;;;6.80;99.90;;;;;;4994894;28;20185;-42
2020/12/15 06:58:28;;;;;;;6.30;4.47;;;6.80;99.90;;;;;;5004901;28;20211;-46
2020/12/15 07:00:54;;;;;;;5.63;4.93;;;6.80;99.90;;;;;;4994593;28;20231;-43
2020/12/15 07:03:37;;;;;;;6.13;5.27;;;6.80;99.90;;;;;;5004056;28;20237;-42
2020/12/15 07:06:15;;;;;;;5.93;5.27;;;6.90;99.90;;;;;;4995548;28;21057;-42
2020/12/15 07:08:42;;;;;;;4.73;4.33;;;6.90;99.90;;;;;;4977352;28;20201;-42
2020/12/15 07:11:08;;;;;;;6.17;5.20;;;6.90;99.90;;;;;;4997751;28;20183;-42
2020/12/15 07:13:33;;;;;;;6.23;5.17;;;6.90;99.90;;;;;;5023668;28;20196;-42
2020/12/15 07:15:59;;;;;;;5.67;4.80;;;6.90;99.90;;;;;;5000131;28;20196;-42
2020/12/15 07:18:24;;;;;;;5.40;4.73;;;6.90;99.90;;;;;;5007570;28;20232;-43
2020/12/15 07:20:50;;;;;;;5.90;5.30;;;6.90;99.90;;;;;;5006393;28;20656;-41
2020/12/15 07:23:18;;;;;;;7.53;5.60;;;6.90;99.90;;;;;;5000720;28;20236;-44
2020/12/15 07:25:44;;;;;;;5.93;5.20;;;6.90;99.90;;;;;;4991749;28;20184;-43
2020/12/15 07:28:10;;;;;;;7.07;5.47;;;6.90;99.90;;;;;;5008152;28;20184;-42
2020/12/15 07:30:39;;;;;;;7.07;4.97;;;6.90;99.90;;;;;;5023249;28;20188;-44
2020/12/15 07:33:05;;;;;;;7.00;4.53;;;6.90;99.90;;;;;;4995001;28;20169;-43
2020/12/15 07:35:31;;;;;;;5.30;4.80;;;7.00;99.90;;;;;;5005314;28;20176;-46
2020/12/15 07:37:58;;;;;;;6.13;5.53;;;6.90;99.90;;;;;;4993318;28;20277;-42
2020/12/15 07:40:29;;;;;;;7.63;5.60;;;7.00;99.90;;;;;;4983818;28;20201;-43
2020/12/15 07:43:02;;;;;;;6.73;5.23;;;7.00;99.90;;;;;;5006685;28;20230;-49
2020/12/15 07:45:32;;;;;;;5.77;4.90;;;7.00;99.90;;;;;;5023525;28;20188;-41
2020/12/15 07:47:58;;;;;;;6.10;5.17;;;7.00;99.90;;;;;;5018983;28;20214;-44
2020/12/15 07:50:29;;;;;;;5.23;4.73;;;7.00;99.90;;;;;;5006005;28;20275;-43
2020/12/15 07:52:56;;;;;;;8.07;5.10;;;7.00;99.90;;;;;;4992969;28;20196;-43
2020/12/15 07:55:23;;;;;;;6.20;5.30;;;7.00;99.90;;;;;;5003283;28;20275;-42
2020/12/15 07:57:49;;;;;;;6.00;5.40;;;7.00;99.90;;;;;;4976948;28;20736;-44
2020/12/15 08:00:18;;;;;;;6.90;5.77;;;7.10;99.90;;;;;;4989412;28;20209;-46
2020/12/15 08:02:44;;;;;;;7.10;5.50;;;7.10;99.90;;;;;;4990479;28;20188;-42
2020/12/15 08:05:19;;;;;;;5.87;5.37;;;7.10;99.90;;;;;;4992075;28;20204;-47
2020/12/15 08:07:52;;;;;;;6.80;5.23;;;7.20;99.90;;;;;;4996957;28;20204;-43
2020/12/15 08:10:30;;;;;;;6.33;5.17;;;7.20;99.90;;;;;;5003223;28;20876;-42
2020/12/15 08:12:58;;;;;;;6.27;5.30;;;7.20;99.90;;;;;;4984592;28;20205;-42
2020/12/15 08:15:25;;;;;;;8.70;5.53;;;7.20;99.90;;;;;;4997177;28;20279;-42
2020/12/15 08:17:51;;;;;;;6.53;5.10;;;7.20;99.90;;;;;;4995397;28;20239;-45
2020/12/15 08:20:25;;;;;;;7.00;5.60;;;7.20;99.90;;;;;;4997547;28;20207;-44
2020/12/15 08:23:03;;;;;;;10.00;5.90;;;7.20;99.90;;;;;;5002128;28;20184;-42
2020/12/15 08:25:29;;;;;;;6.90;5.80;;;7.30;99.90;;;;;;5010609;28;20199;-44
2020/12/15 08:28:23;;;;;;;7.40;5.80;;;7.30;99.90;;;;;;4987491;28;20697;-41
2020/12/15 08:30:49;;;;;;;11.07;6.37;;;7.30;99.90;;;;;;4992976;28;20677;-42
2020/12/15 08:33:22;;;;;;;6.10;5.50;;;7.30;99.90;;;;;;4995742;28;20200;-43
2020/12/15 08:35:48;;;;;;;6.53;5.57;;;7.30;99.90;;;;;;4995396;28;20561;-42
2020/12/15 08:38:15;;;;;;;7.73;6.13;;;7.30;99.90;;;;;;4993368;28;20262;-43
2020/12/15 08:40:44;;;;;;;6.47;5.30;;;7.40;99.90;;;;;;4997177;28;20247;-42
2020/12/15 08:43:10;;;;;;;7.00;5.70;;;7.40;99.90;;;;;;4984919;28;20281;-44
2020/12/15 08:45:36;;;;;;;6.43;5.83;;;7.40;99.90;;;;;;4997399;28;20834;-42
2020/12/15 08:48:02;;;;;;;7.07;5.80;;;7.40;99.90;;;;;;5019575;28;20322;-42
2020/12/15 08:50:30;;;;;;;6.67;5.53;;;7.40;99.90;;;;;;5006865;28;20199;-45
2020/12/15 08:53:06;;;;;;;7.60;5.53;;;7.40;99.90;;;;;;4999354;28;21192;-40
2020/12/15 08:55:33;;;;;;;6.77;5.57;;;7.40;99.90;;;;;;5002903;28;20197;-43
2020/12/15 08:58:02;;;;;;;7.20;5.97;;;7.50;99.90;;;;;;4991071;28;20331;-40
2020/12/15 09:00:35;;;;;;;7.07;5.47;;;7.50;99.90;;;;;;5002165;28;20203;-41
2020/12/15 09:03:12;;;;;;;8.60;6.40;;;7.50;99.90;;;;;;5001058;28;20192;-39
2020/12/15 09:05:54;;;;;;;8.73;5.50;;;7.50;99.90;;;;;;5007198;28;20664;-44
2020/12/15 09:08:22;;;;;;;7.37;5.60;;;7.50;99.90;;;;;;4995501;28;20192;-42
2020/12/15 09:10:50;;;;;;;7.17;6.03;;;7.60;99.90;;;;;;5000618;28;20807;-40
2020/12/15 09:13:15;;;;;;;10.17;6.27;;;7.60;99.90;;;;;;4990643;28;20255;-49
2020/12/15 09:15:50;;;;;;;8.77;6.53;;;7.60;99.90;;;;;;4999998;28;20549;-40
2020/12/15 09:18:28;;;;;;;6.90;6.00;;;7.60;99.90;;;;;;5003210;28;20235;-44
2020/12/15 09:20:53;;;;;;;6.90;6.17;;;7.60;99.90;;;;;;5002531;28;20194;-40
2020/12/15 09:23:26;;;;;;;8.50;6.17;;;7.70;99.90;;;;;;5008740;28;20677;-46
2020/12/15 09:25:53;;;;;;;9.70;6.30;;;7.70;99.90;;;;;;5001674;28;20642;-39
2020/12/15 09:28:26;;;;;;;10.50;5.80;;;7.70;99.90;;;;;;4987925;28;20201;-44
2020/12/15 09:30:51;;;;;;;8.23;6.27;;;7.70;99.90;;;;;;4997954;28;20204;-41
2020/12/15 09:33:17;;;;;;;9.43;6.67;;;7.70;99.90;;;;;;4991655;28;20216;-42
2020/12/15 09:35:43;;;;;;;7.40;6.23;;;7.70;99.90;;;;;;5003222;28;20192;-40
2020/12/15 09:38:08;;;;;;;7.43;5.83;;;7.70;99.90;;;;;;5005430;28;20376;-47
2020/12/15 09:40:34;;;;;;;8.63;6.53;;;7.80;99.90;;;;;;5006293;28;20193;-45
2020/12/15 09:42:59;;;;;;;7.47;6.27;;;7.80;99.90;;;;;;4987951;28;20189;-50
2020/12/15 09:45:25;;;;;;;8.27;6.43;;;7.80;99.90;;;;;;5009709;28;20223;-44
2020/12/15 09:47:50;;;;;;;8.17;6.50;;;7.90;99.90;;;;;;4995045;28;20576;-41
2020/12/15 09:50:16;;;;;;;9.77;6.83;;;7.90;99.90;;;;;;5004866;28;20190;-44
2020/12/15 09:52:41;;;;;;;7.47;6.10;;;7.90;99.90;;;;;;5000946;28;20248;-40
2020/12/15 09:55:07;;;;;;;7.37;6.20;;;7.90;99.90;;;;;;5011723;28;20937;-49
2020/12/15 09:57:32;;;;;;;7.70;6.73;;;7.90;99.90;;;;;;4999621;28;20213;-44
2020/12/15 09:59:57;;;;;;;7.30;6.57;;;8.00;99.90;;;;;;4981501;28;20192;-44
2020/12/15 10:02:23;;;;;;;8.53;6.50;;;8.00;99.90;;;;;;4995899;28;20197;-49
2020/12/15 10:04:49;;;;;;;6.37;5.77;;;8.00;99.90;;;;;;5007570;28;20924;-42
2020/12/15 10:07:14;;;;;;;8.17;7.03;;;8.00;99.90;;;;;;5002550;28;20256;-48
2020/12/15 10:09:40;;;;;;;8.17;6.17;;;8.00;99.90;;;;;;5011824;28;20184;-41
2020/12/15 10:12:05;;;;;;;7.33;6.33;;;8.00;99.90;;;;;;5014944;28;20917;-43
2020/12/15 10:14:31;;;;;;;10.53;6.67;;;8.10;99.90;;;;;;4969515;28;20208;-45
2020/12/15 10:16:56;;;;;;;10.73;6.77;;;8.10;99.90;;;;;;5001956;28;20201;-42
2020/12/15 10:19:21;;;;;;;9.67;7.20;;;8.10;99.90;;;;;;5002157;28;20185;-45
2020/12/15 10:21:52;;;;;;;8.00;7.20;;;8.10;99.90;;;;;;5009799;28;20264;-41
2020/12/15 10:24:17;;;;;;;9.47;6.70;;;8.20;99.90;;;;;;4990759;28;20214;-46
2020/12/15 10:26:43;;;;;;;7.47;6.70;;;8.30;99.90;;;;;;5013849;28;20184;-45
2020/12/15 10:29:08;;;;;;;7.80;6.43;;;8.30;99.90;;;;;;4985457;28;20211;-43
2020/12/15 10:31:33;;;;;;;8.47;6.20;;;8.30;99.90;;;;;;5014495;28;20172;-45
2020/12/15 10:33:59;;;;;;;9.77;7.03;;;8.30;99.90;;;;;;4995522;28;20796;-43
2020/12/15 10:36:25;;;;;;;8.80;6.20;;;8.30;99.90;;;;;;5001095;28;20264;-49
2020/12/15 10:38:50;;;;;;;7.70;6.87;;;8.40;99.90;;;;;;4995428;28;20244;-43
2020/12/15 10:41:15;;;;;;;8.03;6.67;;;8.40;99.90;;;;;;5009588;28;20289;-45
2020/12/15 10:43:41;;;;;;;7.73;6.63;;;8.40;99.90;;;;;;4999695;28;20219;-41
2020/12/15 10:46:07;;;;;;;10.70;7.07;;;8.50;99.90;;;;;;4985138;28;20188;-41
2020/12/15 10:48:32;;;;;;;7.77;6.43;;;8.50;99.90;;;;;;4996442;28;20521;-47
2020/12/15 10:50:58;;;;;;;7.17;6.00;;;8.50;99.90;;;;;;4991085;28;20216;-49
2020/12/15 10:53:23;;;;;;;11.17;6.70;;;8.60;99.90;;;;;;5015833;28;20212;-42
2020/12/15 10:55:50;;;;;;;8.67;7.10;;;8.60;99.90;;;;;;4994023;28;20229;-44
2020/12/15 10:58:17;;;;;;;7.33;6.40;;;8.60;99.90;;;;;;4996488;28;21003;-43
2020/12/15 11:00:42;;;;;;;8.20;6.77;;;8.70;99.90;;;;;;4998184;28;20192;-40
2020/12/15 11:03:08;;;;;;;9.23;6.77;;;8.70;99.90;;;;;;4989762;28;20185;-47
2020/12/15 11:05:33;;;;;;;7.17;6.40;;;8.70;99.90;;;;;;5011664;28;20531;-44
2020/12/15 11:07:59;;;;;;;7.50;6.30;;;8.70;99.90;;;;;;4995841;28;20319;-44
2020/12/15 11:10:24;;;;;;;9.67;6.20;;;8.70;99.90;;;;;;5000296;28;20339;-46
2020/12/15 11:12:50;;;;;;;8.00;6.10;;;8.70;99.90;;;;;;4997752;28;20200;-44
2020/12/15 11:15:15;;;;;;;8.40;5.70;;;8.70;99.90;;;;;;4996875;28;20207;-42
2020/12/15 11:17:41;;;;;;;7.67;5.73;;;8.70;99.90;;;;;;4981616;28;20620;-40
2020/12/15 11:20:06;;;;;;;7.07;6.37;;;8.70;99.90;;;;;;4994953;28;20189;-48
2020/12/15 11:22:32;;;;;;;7.87;6.60;;;8.80;99.90;;;;;;5006912;28;20178;-45
2020/12/15 11:24:58;;;;;;;7.53;5.70;;;8.70;99.90;;;;;;5012866;28;20192;-44
2020/12/15 11:27:23;;;;;;;7.53;6.47;;;8.80;99.90;;;;;;5022141;28;20184;-42
2020/12/15 11:29:49;;;;;;;9.10;7.13;;;8.80;99.90;;;;;;5008671;28;20302;-40
2020/12/15 11:32:14;;;;;;;10.63;7.70;;;8.80;99.90;;;;;;4985275;28;20208;-46
2020/12/15 11:34:40;;;;;;;10.80;7.23;;;8.80;99.90;;;;;;5007377;28;20695;-41
2020/12/15 11:37:09;;;;;;;11.23;7.17;;;8.90;99.90;;;;;;5007935;28;21002;-44
2020/12/15 11:39:35;;;;;;;7.80;6.37;;;8.90;99.90;;;;;;5006285;28;20185;-49
2020/12/15 11:42:06;;;;;;;8.37;6.97;;;8.90;99.90;;;;;;4994392;28;20188;-50
2020/12/15 11:44:32;;;;;;;6.90;6.13;;;8.90;99.90;;;;;;5009313;28;20236;-51
2020/12/15 11:46:57;;;;;;;7.97;6.93;;;8.90;99.90;;;;;;4993299;28;20388;-42
2020/12/15 11:49:23;;;;;;;7.03;6.23;;;8.90;99.90;;;;;;4992196;28;20197;-46
2020/12/15 11:51:52;;;;;;;7.50;6.77;;;8.90;99.90;;;;;;4996050;28;20184;-39
2020/12/15 11:54:18;;;;;;;9.27;6.37;;;8.90;99.90;;;;;;5001552;28;20252;-42
2020/12/15 11:56:44;;;;;;;10.00;6.47;;;9.00;99.90;;;;;;4998151;28;20201;-43
2020/12/15 11:59:10;;;;;;;8.37;6.37;;;8.90;99.90;;;;;;4997139;28;20949;-46
2020/12/15 12:01:35;;;;;;;12.07;7.00;;;8.90;99.90;;;;;;4996924;28;20276;-44
2020/12/15 12:04:00;;;;;;;9.07;7.03;;;8.90;99.90;;;;;;4975046;28;20212;-44
2020/12/15 12:06:32;;;;;;;7.40;6.57;;;8.90;99.90;;;;;;5007856;28;20194;-45
2020/12/15 12:08:58;;;;;;;8.47;7.07;;;8.90;99.90;;;;;;4995468;28;20193;-46
2020/12/15 12:11:23;;;;;;;7.97;7.17;;;8.90;99.90;;;;;;4997805;28;20195;-47
2020/12/15 12:13:49;;;;;;;8.13;6.40;;;8.90;99.90;;;;;;5005041;28;20204;-40
2020/12/15 12:16:14;;;;;;;9.17;6.63;;;8.90;99.90;;;;;;5009351;28;20275;-44
2020/12/15 12:18:40;;;;;;;9.00;7.00;;;8.90;99.90;;;;;;4981600;28;20270;-40
2020/12/15 12:21:05;;;;;;;8.03;6.50;;;8.90;99.90;;;;;;5009199;28;20180;-44
2020/12/15 12:23:31;;;;;;;8.77;7.20;;;8.90;99.90;;;;;;5002596;28;20275;-45
2020/12/15 12:25:56;;;;;;;15.23;7.40;;;8.90;99.90;;;;;;5016054;28;20179;-40
2020/12/15 12:28:22;;;;;;;10.73;7.27;;;8.90;99.90;;;;;;5021255;28;20234;-42
2020/12/15 12:30:47;;;;;;;9.03;6.77;;;9.00;99.90;;;;;;5023315;28;20194;-39
2020/12/15 12:33:13;;;;;;;8.90;7.40;;;9.00;99.90;;;;;;5004213;28;20295;-45
2020/12/15 12:35:38;;;;;;;8.57;7.50;;;9.00;99.90;;;;;;4981834;28;20193;-40
2020/12/15 12:38:04;;;;;;;8.90;7.20;;;9.00;99.90;;;;;;5004549;28;20774;-44
2020/12/15 12:40:29;;;;;;;9.97;7.53;;;9.00;99.90;;;;;;4999409;28;20264;-45
2020/12/15 12:42:59;;;;;;;10.97;6.90;;;9.00;99.90;;;;;;5007597;28;20188;-43
2020/12/15 12:45:24;;;;;;;8.40;7.00;;;9.00;99.90;;;;;;4999731;28;20196;-44
2020/12/15 12:47:50;;;;;;;10.73;7.57;;;9.00;99.90;;;;;;5002097;28;20201;-46
2020/12/15 12:50:15;;;;;;;11.13;7.43;;;9.00;99.90;;;;;;4986792;28;20207;-49
2020/12/15 12:52:41;;;;;;;12.10;7.70;;;9.00;99.90;;;;;;5008690;28;20213;-45
2020/12/15 12:55:06;;;;;;;10.27;7.13;;;9.00;99.90;;;;;;4998053;28;20208;-46